Speed, Missouri
Current Conditions -  °F | °C
As of 8:35 PM on Friday 24 Oct 2014 (Local Time) from KVER Reporting Station
Clear Clear  
Wind Chill: 67°   Ceiling: Unl
Heat Index: 67°   Visibility: 10mi
Dew Point: 59°   Wind: 5mph
Humidity: 77%   Direction: 180°S
Pressure: 29.96"   Gusts: NA
Location:  38.8814°N, 92.7602°W
Report Text: KVER 250135Z AUTO 18004KT 10SM CLR 19/15 A2996 RMK AO2 T01920150
Loading
Personal Weather Stations






























Interactive Weather Map
Tropical Storm Tracking
New forecast layout! Learn more

10-Day Weather Forecast

Advertisements
Track Severe Weather on mobile